Time;durP1;ratioP1;P1;durP2;ratioP2;P2;SDS_P1;SDS_P2;PMS_P1;PMS_P2;Temp;Humidity;BMP_temperature;BMP_pressure;BME280_temperature;BME280_humidity;BME280_pressure;Samples;Min_cycle;Max_cycle;Signal;HPM_P1;HPM_P2
2022/04/11 00:02:00;;;;;;;;;;;;;;;;;;5054434;28;19905;-60
2022/04/11 00:04:25;;;;;;;;;;;;;;;;;;5071860;28;19915;-60
2022/04/11 00:06:51;;;;;;;;;;;;;;;;;;5031498;28;19913;-59
2022/04/11 00:09:16;;;;;;;;;;;;;;;;;;5050125;28;19909;-60
2022/04/11 00:11:41;;;;;;;;;;;;;;;;;;5034706;28;19910;-60
2022/04/11 00:14:06;;;;;;;;;;;;;;;;;;5049393;28;19905;-59
2022/04/11 00:16:31;;;;;;;;;;;;;;;;;;5034069;28;19917;-58
2022/04/11 00:18:57;;;;;;;;;;;;;;;;;;5049096;28;19905;-59
2022/04/11 00:21:22;;;;;;;;;;;;;;;;;;5033711;28;19917;-59
2022/04/11 00:23:47;;;;;;;;;;;;;;;;;;5033984;28;19940;-59
2022/04/11 00:26:12;;;;;;;;;;;;;;;;;;5031490;28;19909;-60
2022/04/11 00:28:38;;;;;;;;;;;;;;;;;;5033993;28;19932;-59
2022/04/11 00:31:03;;;;;;;;;;;;;;;;;;5049507;28;20334;-59
2022/04/11 00:33:28;;;;;;;;;;;;;;;;;;5032337;28;19909;-59
2022/04/11 00:35:53;;;;;;;;;;;;;;;;;;5049139;28;20258;-60
2022/04/11 00:38:19;;;;;;;;;;;;;;;;;;5032578;28;20007;-59
2022/04/11 00:40:44;;;;;;;;;;;;;;;;;;5053436;28;19909;-59
2022/04/11 00:43:09;;;;;;;;;;;;;;;;;;5053710;28;19905;-59
2022/04/11 00:45:34;;;;;;;;;;;;;;;;;;5053938;28;19960;-59
2022/04/11 00:48:00;;;;;;;;;;;;;;;;;;5053944;28;19940;-59
2022/04/11 00:50:26;;;;;;;;;;;;;;;;;;5037714;28;19909;-59
2022/04/11 00:52:52;;;;;;;;;;;;;;;;;;5052976;28;19971;-59
2022/04/11 00:55:18;;;;;;;;;;;;;;;;;;5036784;28;20242;-59
2022/04/11 00:57:43;;;;;;;;;;;;;;;;;;5037502;28;20006;-59
2022/04/11 01:00:08;;;;;;;;;;;;;;;;;;5037602;28;19909;-59
2022/04/11 01:02:34;;;;;;;;;;;;;;;;;;5037751;28;19908;-59
2022/04/11 01:04:59;;;;;;;;;;;;;;;;;;5053276;28;20003;-59
2022/04/11 01:07:24;;;;;;;;;;;;;;;;;;5037325;28;20029;-59
2022/04/11 01:09:50;;;;;;;;;;;;;;;;;;5052568;28;19909;-59
2022/04/11 01:12:15;;;;;;;;;;;;;;;;;;5052940;28;19939;-59
2022/04/11 01:14:40;;;;;;;;;;;;;;;;;;5052396;28;19967;-59
2022/04/11 01:17:06;;;;;;;;;;;;;;;;;;5037150;28;19913;-59
2022/04/11 01:19:31;;;;;;;;;;;;;;;;;;5036736;28;19921;-58
2022/04/11 01:21:56;;;;;;;;;;;;;;;;;;5053983;28;20004;-59
2022/04/11 01:24:22;;;;;;;;;;;;;;;;;;5072895;28;19951;-59
2022/04/11 01:26:47;;;;;;;;;;;;;;;;;;5059453;28;19959;-59
2022/04/11 01:29:13;;;;;;;;;;;;;;;;;;5052312;28;19913;-59
2022/04/11 01:31:38;;;;;;;;;;;;;;;;;;5062138;28;19916;-59
2022/04/11 01:34:03;;;;;;;;;;;;;;;;;;5075140;28;19908;-59
2022/04/11 01:36:28;;;;;;;;;;;;;;;;;;5075367;28;19912;-59
2022/04/11 01:38:54;;;;;;;;;;;;;;;;;;5075533;28;19908;-59
2022/04/11 01:41:22;;;;;;;;;;;;;;;;;;5075986;28;20078;-59
2022/04/11 01:43:47;;;;;;;;;;;;;;;;;;5076594;28;20253;-59
2022/04/11 01:46:12;;;;;;;;;;;;;;;;;;5075259;28;19912;-59
2022/04/11 01:48:42;;;;;;;;;;;;;;;;;;5074929;28;19908;-59
2022/04/11 01:51:07;;;;;;;;;;;;;;;;;;5075406;28;19915;-59
2022/04/11 01:53:32;;;;;;;;;;;;;;;;;;5075996;28;19958;-59
2022/04/11 01:55:58;;;;;;;;;;;;;;;;;;5075302;28;20008;-59
2022/04/11 01:58:23;;;;;;;;;;;;;;;;;;5075647;28;19909;-59
2022/04/11 02:00:48;;;;;;;;;;;;;;;;;;5075022;28;19908;-59
2022/04/11 02:03:13;;;;;;;;;;;;;;;;;;5077178;28;19904;-59
2022/04/11 02:05:39;;;;;;;;;;;;;;;;;;5058288;28;19909;-59
2022/04/11 02:08:07;;;;;;;;;;;;;;;;;;5076209;28;19909;-59
2022/04/11 02:10:32;;;;;;;;;;;;;;;;;;5076147;28;19948;-59
2022/04/11 02:12:58;;;;;;;;;;;;;;;;;;5075831;28;19946;-59
2022/04/11 02:15:23;;;;;;;;;;;;;;;;;;5075254;28;20234;-58
2022/04/11 02:17:50;;;;;;;;;;;;;;;;;;5076310;28;19912;-59
2022/04/11 02:20:15;;;;;;;;;;;;;;;;;;5054254;28;19920;-59
2022/04/11 02:22:40;;;;;;;;;;;;;;;;;;5071254;28;19909;-60
2022/04/11 02:25:06;;;;;;;;;;;;;;;;;;5059886;28;19909;-60
2022/04/11 02:27:31;;;;;;;;;;;;;;;;;;5068246;28;19936;-60
2022/04/11 02:29:56;;;;;;;;;;;;;;;;;;5034594;28;19916;-58
2022/04/11 02:32:21;;;;;;;;;;;;;;;;;;5068551;28;19955;-60
2022/04/11 02:34:47;;;;;;;;;;;;;;;;;;5068469;28;19917;-60
2022/04/11 02:37:12;;;;;;;;;;;;;;;;;;5068537;28;20290;-60
2022/04/11 02:39:37;;;;;;;;;;;;;;;;;;5067648;28;19949;-60
2022/04/11 02:42:03;;;;;;;;;;;;;;;;;;5067576;28;19913;-60
2022/04/11 02:44:28;;;;;;;;;;;;;;;;;;5067553;28;19905;-60
2022/04/11 02:46:54;;;;;;;;;;;;;;;;;;5067968;28;19940;-60
2022/04/11 02:49:19;;;;;;;;;;;;;;;;;;5033103;28;19963;-60
2022/04/11 02:51:53;;;;;;;;;;;;;;;;;;5048484;28;20365;-60
2022/04/11 02:54:18;;;;;;;;;;;;;;;;;;5044055;28;19916;-60
2022/04/11 02:56:46;;;;;;;;;;;;;;;;;;5071414;28;19935;-60
2022/04/11 02:59:11;;;;;;;;;;;;;;;;;;5054394;28;20339;-60
2022/04/11 03:01:39;;;;;;;;;;;;;;;;;;5069735;28;19909;-60
2022/04/11 03:04:07;;;;;;;;;;;;;;;;;;5054659;28;19905;-59
2022/04/11 03:06:58;;;;;;;;;;;;;;;;;;5052385;28;19958;-60
2022/04/11 03:09:25;;;;;;;;;;;;;;;;;;5053944;28;19909;-60
2022/04/11 03:11:50;;;;;;;;;;;;;;;;;;5054667;28;19913;-60
2022/04/11 03:14:16;;;;;;;;;;;;;;;;;;5070350;28;19905;-60
2022/04/11 03:16:41;;;;;;;;;;;;;;;;;;5070238;28;19913;-60
2022/04/11 03:19:07;;;;;;;;;;;;;;;;;;5070648;28;19905;-59
2022/04/11 03:21:32;;;;;;;;;;;;;;;;;;5070550;28;19923;-59
2022/04/11 03:24:05;;;;;;;;;;;;;;;;;;5070685;28;19944;-60
2022/04/11 03:26:30;;;;;;;;;;;;;;;;;;5070275;28;19971;-60
2022/04/11 03:28:56;;;;;;;;;;;;;;;;;;5070550;28;19911;-60
2022/04/11 03:31:21;;;;;;;;;;;;;;;;;;5070712;28;20223;-60
2022/04/11 03:33:46;;;;;;;;;;;;;;;;;;5069974;28;20253;-60
2022/04/11 03:36:11;;;;;;;;;;;;;;;;;;5069280;28;20364;-60
2022/04/11 03:38:37;;;;;;;;;;;;;;;;;;5053190;28;19913;-60
2022/04/11 03:41:02;;;;;;;;;;;;;;;;;;5049789;28;19913;-60
2022/04/11 03:43:27;;;;;;;;;;;;;;;;;;5053217;28;19915;-60
2022/04/11 03:45:53;;;;;;;;;;;;;;;;;;5070050;28;19923;-60
2022/04/11 03:48:19;;;;;;;;;;;;;;;;;;5070524;28;19948;-60
2022/04/11 03:50:44;;;;;;;;;;;;;;;;;;5069692;28;19978;-60
2022/04/11 03:53:10;;;;;;;;;;;;;;;;;;5069968;28;20372;-60
2022/04/11 03:55:38;;;;;;;;;;;;;;;;;;5069749;28;19958;-58
2022/04/11 03:58:05;;;;;;;;;;;;;;;;;;5070226;28;19909;-58
2022/04/11 04:00:34;;;;;;;;;;;;;;;;;;5070309;28;19962;-58
2022/04/11 04:03:10;;;;;;;;;;;;;;;;;;5069831;28;19913;-58
2022/04/11 04:05:39;;;;;;;;;;;;;;;;;;5069494;28;19909;-58
2022/04/11 04:08:04;;;;;;;;;;;;;;;;;;5052771;28;19958;-58
2022/04/11 04:10:29;;;;;;;;;;;;;;;;;;5069472;28;19912;-58
2022/04/11 04:12:56;;;;;;;;;;;;;;;;;;5052941;28;20436;-58
2022/04/11 04:15:22;;;;;;;;;;;;;;;;;;5070444;28;19963;-58
2022/04/11 04:17:51;;;;;;;;;;;;;;;;;;5072745;28;19964;-58
2022/04/11 04:20:16;;;;;;;;;;;;;;;;;;5072398;28;19947;-58
2022/04/11 04:22:42;;;;;;;;;;;;;;;;;;5072665;28;19914;-58
2022/04/11 04:25:08;;;;;;;;;;;;;;;;;;5072958;28;19908;-58
2022/04/11 04:27:34;;;;;;;;;;;;;;;;;;5072591;28;19909;-58
2022/04/11 04:29:59;;;;;;;;;;;;;;;;;;5056784;28;19908;-58
2022/04/11 04:32:26;;;;;;;;;;;;;;;;;;5073006;28;20226;-59
2022/04/11 04:34:51;;;;;;;;;;;;;;;;;;5073674;28;19947;-59
2022/04/11 04:37:18;;;;;;;;;;;;;;;;;;5072577;28;19913;-59
2022/04/11 04:39:43;;;;;;;;;;;;;;;;;;5055871;28;19915;-59
2022/04/11 04:42:09;;;;;;;;;;;;;;;;;;5072541;28;19910;-59
2022/04/11 04:44:34;;;;;;;;;;;;;;;;;;5036036;28;19909;-59
2022/04/11 04:47:00;;;;;;;;;;;;;;;;;;5053526;28;19910;-59
2022/04/11 04:49:34;;;;;;;;;;;;;;;;;;5033635;28;19917;-59
2022/04/11 04:52:01;;;;;;;;;;;;;;;;;;5066431;28;20004;-59
2022/04/11 04:54:27;;;;;;;;;;;;;;;;;;5065809;28;20346;-59
2022/04/11 04:56:54;;;;;;;;;;;;;;;;;;5065828;28;19917;-59
2022/04/11 04:59:23;;;;;;;;;;;;;;;;;;5071161;28;19909;-59
2022/04/11 05:01:49;;;;;;;;;;;;;;;;;;5069056;28;20312;-59
2022/04/11 05:04:16;;;;;;;;;;;;;;;;;;5069347;28;19908;-59
2022/04/11 05:06:41;;;;;;;;;;;;;;;;;;5069016;28;20266;-59
2022/04/11 05:09:10;;;;;;;;;;;;;;;;;;5051408;28;19905;-59
2022/04/11 05:11:35;;;;;;;;;;;;;;;;;;5050452;28;19931;-60
2022/04/11 05:14:00;;;;;;;;;;;;;;;;;;5069423;28;19904;-60
2022/04/11 05:16:28;;;;;;;;;;;;;;;;;;5068835;28;20007;-59
2022/04/11 05:18:54;;;;;;;;;;;;;;;;;;5068874;28;20003;-59
2022/04/11 05:21:19;;;;;;;;;;;;;;;;;;5069076;28;19919;-59
2022/04/11 05:23:44;;;;;;;;;;;;;;;;;;5066229;28;19979;-59
2022/04/11 05:26:10;;;;;;;;;;;;;;;;;;5065228;28;19908;-59
2022/04/11 05:28:36;;;;;;;;;;;;;;;;;;5055742;28;19915;-59
2022/04/11 05:31:03;;;;;;;;;;;;;;;;;;5069680;28;19909;-59
2022/04/11 05:33:33;;;;;;;;;;;;;;;;;;5072608;28;19909;-59
2022/04/11 05:36:00;;;;;;;;;;;;;;;;;;5072241;28;19913;-61
2022/04/11 05:38:25;;;;;;;;;;;;;;;;;;5049918;28;19909;-62
2022/04/11 05:40:51;;;;;;;;;;;;;;;;;;5052315;28;19920;-59
2022/04/11 05:43:24;;;;;;;;;;;;;;;;;;5053115;28;20273;-59
2022/04/11 05:45:49;;;;;;;;;;;;;;;;;;5036578;28;19909;-63
2022/04/11 05:48:14;;;;;;;;;;;;;;;;;;5052628;28;20223;-59
2022/04/11 05:50:40;;;;;;;;;;;;;;;;;;5036604;28;19913;-59
2022/04/11 05:53:05;;;;;;;;;;;;;;;;;;5035260;28;19910;-60
2022/04/11 05:55:30;;;;;;;;;;;;;;;;;;5036484;28;19920;-60
2022/04/11 05:57:57;;;;;;;;;;;;;;;;;;5052390;28;19921;-60
2022/04/11 06:00:22;;;;;;;;;;;;;;;;;;5051792;28;19905;-59
2022/04/11 06:02:47;;;;;;;;;;;;;;;;;;5067899;28;19908;-59
2022/04/11 06:05:13;;;;;;;;;;;;;;;;;;5071613;28;19927;-60
2022/04/11 06:07:39;;;;;;;;;;;;;;;;;;5071902;28;20008;-59
2022/04/11 06:10:04;;;;;;;;;;;;;;;;;;5071903;28;20003;-59
2022/04/11 06:12:29;;;;;;;;;;;;;;;;;;5056312;28;20371;-59
2022/04/11 06:14:55;;;;;;;;;;;;;;;;;;5035409;28;19913;-60
2022/04/11 06:17:23;;;;;;;;;;;;;;;;;;5049184;28;19920;-60
2022/04/11 06:19:48;;;;;;;;;;;;;;;;;;5068427;28;19975;-60
2022/04/11 06:22:14;;;;;;;;;;;;;;;;;;5068608;28;20306;-60
2022/04/11 06:24:39;;;;;;;;;;;;;;;;;;5068897;28;19909;-60
2022/04/11 06:27:04;;;;;;;;;;;;;;;;;;5036241;28;20350;-61
2022/04/11 06:29:30;;;;;;;;;;;;;;;;;;5035320;28;20273;-60
2022/04/11 06:31:56;;;;;;;;;;;;;;;;;;5034936;28;19916;-60
2022/04/11 06:34:27;;;;;;;;;;;;;;;;;;5071135;28;20007;-60
2022/04/11 06:36:53;;;;;;;;;;;;;;;;;;5053164;28;20043;-60
2022/04/11 06:39:18;;;;;;;;;;;;;;;;;;5038458;28;19954;-60
2022/04/11 06:41:49;;;;;;;;;;;;;;;;;;5048756;28;20022;-60
2022/04/11 06:44:15;;;;;;;;;;;;;;;;;;5067679;28;20390;-60
2022/04/11 06:47:05;;;;;;;;;;;;;;;;;;5067991;28;20365;-60
2022/04/11 06:49:30;;;;;;;;;;;;;;;;;;5051447;28;19909;-60
2022/04/11 06:51:55;;;;;;;;;;;;;;;;;;5035042;28;19905;-60
2022/04/11 06:54:21;;;;;;;;;;;;;;;;;;5035342;28;19913;-59
2022/04/11 06:56:46;;;;;;;;;;;;;;;;;;5050767;28;19920;-60
2022/04/11 06:59:11;;;;;;;;;;;;;;;;;;5035135;28;20365;-60
2022/04/11 07:01:36;;;;;;;;;;;;;;;;;;5064718;28;20385;-59
2022/04/11 07:04:02;;;;;;;;;;;;;;;;;;5038450;28;20455;-60
2022/04/11 07:06:27;;;;;;;;;;;;;;;;;;5055097;28;19947;-60
2022/04/11 07:08:52;;;;;;;;;;;;;;;;;;5052599;28;19952;-60
2022/04/11 07:11:17;;;;;;;;;;;;;;;;;;5071226;28;19936;-60
2022/04/11 07:13:43;;;;;;;;;;;;;;;;;;5054986;28;20450;-60
2022/04/11 07:16:08;;;;;;;;;;;;;;;;;;5054519;28;19931;-59
2022/04/11 07:18:35;;;;;;;;;;;;;;;;;;5054544;28;19916;-60
2022/04/11 07:21:01;;;;;;;;;;;;;;;;;;5054945;28;19995;-60
2022/04/11 07:23:26;;;;;;;;;;;;;;;;;;5054606;28;20285;-60
2022/04/11 07:25:51;;;;;;;;;;;;;;;;;;5054706;28;20042;-60
2022/04/11 07:28:17;;;;;;;;;;;;;;;;;;5054653;28;19954;-60
2022/04/11 07:30:42;;;;;;;;;;;;;;;;;;5054689;28;19959;-60
2022/04/11 07:33:07;;;;;;;;;;;;;;;;;;5054959;28;19909;-60
2022/04/11 07:35:32;;;;;;;;;;;;;;;;;;5054323;28;19913;-60
2022/04/11 07:37:57;;;;;;;;;;;;;;;;;;5054569;28;19909;-60
2022/04/11 07:40:23;;;;;;;;;;;;;;;;;;5054244;28;19909;-60
2022/04/11 07:42:51;;;;;;;;;;;;;;;;;;5054011;28;19963;-60
2022/04/11 07:45:16;;;;;;;;;;;;;;;;;;5054370;28;19931;-60
2022/04/11 07:47:42;;;;;;;;;;;;;;;;;;5051546;28;20341;-61
2022/04/11 07:50:07;;;;;;;;;;;;;;;;;;5069461;28;19909;-60
2022/04/11 07:52:32;;;;;;;;;;;;;;;;;;5070352;28;19908;-60
2022/04/11 07:54:57;;;;;;;;;;;;;;;;;;5053699;28;19916;-59
2022/04/11 07:57:24;;;;;;;;;;;;;;;;;;5054156;28;19999;-58
2022/04/11 07:59:49;;;;;;;;;;;;;;;;;;5054187;28;20357;-59
2022/04/11 08:02:16;;;;;;;;;;;;;;;;;;5054387;28;19939;-59
2022/04/11 08:04:41;;;;;;;;;;;;;;;;;;5054124;28;20391;-59
2022/04/11 08:07:06;;;;;;;;;;;;;;;;;;5054111;28;19908;-59
2022/04/11 08:09:31;;;;;;;;;;;;;;;;;;5053966;28;19915;-59
2022/04/11 08:11:57;;;;;;;;;;;;;;;;;;5069832;28;19958;-59
2022/04/11 08:14:22;;;;;;;;;;;;;;;;;;5053685;28;20277;-59
2022/04/11 08:16:47;;;;;;;;;;;;;;;;;;5054030;28;19935;-58
2022/04/11 08:19:12;;;;;;;;;;;;;;;;;;5069473;28;20291;-59
2022/04/11 08:21:37;;;;;;;;;;;;;;;;;;5054710;28;19963;-59
2022/04/11 08:24:03;;;;;;;;;;;;;;;;;;5054200;28;19905;-60
2022/04/11 08:26:28;;;;;;;;;;;;;;;;;;5054222;28;19952;-59
2022/04/11 08:28:53;;;;;;;;;;;;;;;;;;5051603;28;19919;-60
2022/04/11 08:31:18;;;;;;;;;;;;;;;;;;5053848;28;19909;-60
2022/04/11 08:33:43;;;;;;;;;;;;;;;;;;5069341;28;19909;-59
2022/04/11 08:36:09;;;;;;;;;;;;;;;;;;5070033;28;19913;-60
2022/04/11 08:38:34;;;;;;;;;;;;;;;;;;5057614;28;19920;-59
2022/04/11 08:40:59;;;;;;;;;;;;;;;;;;5049952;28;20403;-59
2022/04/11 08:43:24;;;;;;;;;;;;;;;;;;5039041;28;20305;-61
2022/04/11 08:45:49;;;;;;;;;;;;;;;;;;5033468;28;20298;-60
2022/04/11 08:48:15;;;;;;;;;;;;;;;;;;5049138;28;20316;-60
2022/04/11 08:50:40;;;;;;;;;;;;;;;;;;5033438;28;19913;-60
2022/04/11 08:53:05;;;;;;;;;;;;;;;;;;5031123;28;20247;-60
2022/04/11 08:55:30;;;;;;;;;;;;;;;;;;5033193;28;20314;-60
2022/04/11 08:57:55;;;;;;;;;;;;;;;;;;5033170;28;20408;-61
2022/04/11 09:00:21;;;;;;;;;;;;;;;;;;5066912;28;19909;-60
2022/04/11 09:02:46;;;;;;;;;;;;;;;;;;5036832;28;20352;-60
2022/04/11 09:05:11;;;;;;;;;;;;;;;;;;5053419;28;20005;-60
2022/04/11 09:07:37;;;;;;;;;;;;;;;;;;5037151;28;19915;-60
2022/04/11 09:10:02;;;;;;;;;;;;;;;;;;5037072;28;19913;-61
2022/04/11 09:12:27;;;;;;;;;;;;;;;;;;5042127;28;19909;-60
2022/04/11 09:14:52;;;;;;;;;;;;;;;;;;5056549;28;19913;-60
2022/04/11 09:17:17;;;;;;;;;;;;;;;;;;5057183;28;20268;-60
2022/04/11 09:19:43;;;;;;;;;;;;;;;;;;5072010;28;19913;-60
2022/04/11 09:22:09;;;;;;;;;;;;;;;;;;5056775;28;19905;-60
2022/04/11 09:24:34;;;;;;;;;;;;;;;;;;5057008;28;19928;-60
2022/04/11 09:26:59;;;;;;;;;;;;;;;;;;5056493;28;19909;-60
2022/04/11 09:29:26;;;;;;;;;;;;;;;;;;5072113;28;20317;-60
2022/04/11 09:31:51;;;;;;;;;;;;;;;;;;5054185;28;19912;-60
2022/04/11 09:34:17;;;;;;;;;;;;;;;;;;5056205;28;19909;-60
2022/04/11 09:36:42;;;;;;;;;;;;;;;;;;5057133;28;19919;-61
2022/04/11 09:39:07;;;;;;;;;;;;;;;;;;5056398;28;19917;-61
2022/04/11 09:41:34;;;;;;;;;;;;;;;;;;5054412;28;19911;-60
2022/04/11 09:43:59;;;;;;;;;;;;;;;;;;5056380;28;19913;-60
2022/04/11 09:46:25;;;;;;;;;;;;;;;;;;5055990;28;19954;-61
2022/04/11 09:48:50;;;;;;;;;;;;;;;;;;5057210;28;19905;-61
2022/04/11 09:51:15;;;;;;;;;;;;;;;;;;5056131;28;19960;-60
2022/04/11 09:53:41;;;;;;;;;;;;;;;;;;5056522;28;19908;-61
2022/04/11 09:56:08;;;;;;;;;;;;;;;;;;5056068;28;19963;-61
2022/04/11 09:58:33;;;;;;;;;;;;;;;;;;5056249;28;19999;-59
2022/04/11 10:00:58;;;;;;;;;;;;;;;;;;5056069;28;19940;-59
2022/04/11 10:03:23;;;;;;;;;;;;;;;;;;5071185;28;19916;-59
2022/04/11 10:05:49;;;;;;;;;;;;;;;;;;5056343;28;19915;-60
2022/04/11 10:08:14;;;;;;;;;;;;;;;;;;5055662;28;19913;-60
2022/04/11 10:10:39;;;;;;;;;;;;;;;;;;5055562;28;19913;-60
2022/04/11 10:13:05;;;;;;;;;;;;;;;;;;5069369;28;19904;-60
2022/04/11 10:15:30;;;;;;;;;;;;;;;;;;5055631;28;20273;-59
2022/04/11 10:17:56;;;;;;;;;;;;;;;;;;5056347;28;19909;-59
2022/04/11 10:20:21;;;;;;;;;;;;;;;;;;5055781;28;19920;-60
2022/04/11 10:22:46;;;;;;;;;;;;;;;;;;5049860;28;19916;-60
2022/04/11 10:25:11;;;;;;;;;;;;;;;;;;5036333;28;19912;-59
2022/04/11 10:27:38;;;;;;;;;;;;;;;;;;5035433;28;19917;-59
2022/04/11 10:30:03;;;;;;;;;;;;;;;;;;5051198;28;19916;-60
2022/04/11 10:32:29;;;;;;;;;;;;;;;;;;5058757;28;19909;-59
2022/04/11 10:34:54;;;;;;;;;;;;;;;;;;5074933;28;20357;-60
2022/04/11 10:37:20;;;;;;;;;;;;;;;;;;5070641;28;20253;-60
2022/04/11 10:39:45;;;;;;;;;;;;;;;;;;5035177;28;20012;-60
2022/04/11 10:42:10;;;;;;;;;;;;;;;;;;5035943;28;20233;-60
2022/04/11 10:44:36;;;;;;;;;;;;;;;;;;5035255;28;19991;-60
2022/04/11 10:47:01;;;;;;;;;;;;;;;;;;5034813;28;19947;-60
2022/04/11 10:49:26;;;;;;;;;;;;;;;;;;5035499;28;19909;-61
2022/04/11 10:51:51;;;;;;;;;;;;;;;;;;5034962;28;19913;-60
2022/04/11 10:54:17;;;;;;;;;;;;;;;;;;5035730;28;19905;-60
2022/04/11 10:56:42;;;;;;;;;;;;;;;;;;5034710;28;19924;-61
2022/04/11 10:59:07;;;;;;;;;;;;;;;;;;5034418;28;20285;-60
2022/04/11 11:01:32;;;;;;;;;;;;;;;;;;5035568;28;19952;-60
2022/04/11 11:03:58;;;;;;;;;;;;;;;;;;5035325;28;20014;-60
2022/04/11 11:06:23;;;;;;;;;;;;;;;;;;5035134;28;19948;-60
2022/04/11 11:08:51;;;;;;;;;;;;;;;;;;5066328;28;19996;-60
2022/04/11 11:11:17;;;;;;;;;;;;;;;;;;5034432;28;19909;-59
2022/04/11 11:13:42;;;;;;;;;;;;;;;;;;5034887;28;19909;-60
2022/04/11 11:16:11;;;;;;;;;;;;;;;;;;5033185;28;20474;-59
2022/04/11 11:18:36;;;;;;;;;;;;;;;;;;5034747;28;19913;-60
2022/04/11 11:21:01;;;;;;;;;;;;;;;;;;5066641;28;19936;-59
2022/04/11 11:23:27;;;;;;;;;;;;;;;;;;5034185;28;20005;-59
2022/04/11 11:25:52;;;;;;;;;;;;;;;;;;5034639;28;19915;-59
2022/04/11 11:28:17;;;;;;;;;;;;;;;;;;5049804;28;19909;-60
2022/04/11 11:30:42;;;;;;;;;;;;;;;;;;5034807;28;19906;-60
2022/04/11 11:33:08;;;;;;;;;;;;;;;;;;5013571;28;20362;-60
2022/04/11 11:35:33;;;;;;;;;;;;;;;;;;5014276;28;19975;-60
2022/04/11 11:37:58;;;;;;;;;;;;;;;;;;5014920;28;19949;-60
2022/04/11 11:40:23;;;;;;;;;;;;;;;;;;5046120;28;20000;-60
2022/04/11 11:42:49;;;;;;;;;;;;;;;;;;5014874;28;20000;-60
2022/04/11 11:45:14;;;;;;;;;;;;;;;;;;5014413;28;20000;-60
2022/04/11 11:47:39;;;;;;;;;;;;;;;;;;5014601;28;19913;-60
2022/04/11 11:50:05;;;;;;;;;;;;;;;;;;5014538;28;20281;-60
2022/04/11 11:52:30;;;;;;;;;;;;;;;;;;5013965;28;19917;-61
2022/04/11 11:54:55;;;;;;;;;;;;;;;;;;5012320;28;19920;-59
2022/04/11 11:57:21;;;;;;;;;;;;;;;;;;5013862;28;19913;-59
2022/04/11 11:59:47;;;;;;;;;;;;;;;;;;5013948;28;19918;-59
2022/04/11 12:04:56;;;;;;;;;;;;;;;;;;5014197;28;19910;-60
2022/04/11 12:07:23;;;;;;;;;;;;;;;;;;5011546;28;19906;-60
2022/04/11 12:09:48;;;;;;;;;;;;;;;;;;5013811;28;19909;-60
2022/04/11 12:12:13;;;;;;;;;;;;;;;;;;5046031;28;19909;-60
2022/04/11 12:14:39;;;;;;;;;;;;;;;;;;5014106;28;19956;-62
2022/04/11 12:17:04;;;;;;;;;;;;;;;;;;5027286;28;19919;-60
2022/04/11 12:19:29;;;;;;;;;;;;;;;;;;5034088;28;19909;-60
2022/04/11 12:21:54;;;;;;;;;;;;;;;;;;5030013;28;19917;-59
2022/04/11 12:24:20;;;;;;;;;;;;;;;;;;5030156;28;19917;-58
2022/04/11 12:26:45;;;;;;;;;;;;;;;;;;5031708;28;19909;-59
2022/04/11 12:29:10;;;;;;;;;;;;;;;;;;5033339;28;19910;-59
2022/04/11 12:31:37;;;;;;;;;;;;;;;;;;5033715;28;19932;-59
2022/04/11 12:34:02;;;;;;;;;;;;;;;;;;5017727;28;19909;-61
2022/04/11 12:36:28;;;;;;;;;;;;;;;;;;5024016;28;20267;-61
2022/04/11 12:38:53;;;;;;;;;;;;;;;;;;5018533;28;20265;-59
2022/04/11 12:41:19;;;;;;;;;;;;;;;;;;5050077;28;20422;-59
2022/04/11 12:43:44;;;;;;;;;;;;;;;;;;5018231;28;19924;-59
2022/04/11 12:46:09;;;;;;;;;;;;;;;;;;5016495;28;20284;-59
2022/04/11 12:48:34;;;;;;;;;;;;;;;;;;5049668;28;19936;-60
2022/04/11 12:50:59;;;;;;;;;;;;;;;;;;5015945;28;20346;-59
2022/04/11 12:53:25;;;;;;;;;;;;;;;;;;5017328;28;19920;-59
2022/04/11 12:55:51;;;;;;;;;;;;;;;;;;5017927;28;19913;-59
2022/04/11 12:58:17;;;;;;;;;;;;;;;;;;5017815;28;20377;-59
2022/04/11 13:00:44;;;;;;;;;;;;;;;;;;5017344;28;19996;-59
2022/04/11 13:03:09;;;;;;;;;;;;;;;;;;5033021;28;19963;-59
2022/04/11 13:05:34;;;;;;;;;;;;;;;;;;5017197;28;19913;-59
2022/04/11 13:07:59;;;;;;;;;;;;;;;;;;5017712;28;19960;-60
2022/04/11 13:10:25;;;;;;;;;;;;;;;;;;5017819;28;19960;-59
2022/04/11 13:12:50;;;;;;;;;;;;;;;;;;5016156;28;19932;-59
2022/04/11 13:15:15;;;;;;;;;;;;;;;;;;5017538;28;19953;-59
2022/04/11 13:20:26;;;;;;;;;;;;;;;;;;5017415;28;20255;-59
2022/04/11 13:22:51;;;;;;;;;;;;;;;;;;5016806;28;19912;-59
2022/04/11 13:25:17;;;;;;;;;;;;;;;;;;5016825;28;19910;-58
2022/04/11 13:27:42;;;;;;;;;;;;;;;;;;5017727;28;19964;-58
2022/04/11 13:30:07;;;;;;;;;;;;;;;;;;5016555;28;19932;-58
2022/04/11 13:32:33;;;;;;;;;;;;;;;;;;5048880;28;19909;-58
2022/04/11 13:34:58;;;;;;;;;;;;;;;;;;5017702;28;20392;-58
2022/04/11 13:37:23;;;;;;;;;;;;;;;;;;5016511;28;19920;-57
2022/04/11 13:39:48;;;;;;;;;;;;;;;;;;5017398;28;19906;-57
2022/04/11 13:42:14;;;;;;;;;;;;;;;;;;5016638;28;19909;-59
2022/04/11 13:44:39;;;;;;;;;;;;;;;;;;5048640;28;19963;-58
2022/04/11 13:47:04;;;;;;;;;;;;;;;;;;5014187;28;19930;-58
2022/04/11 13:49:29;;;;;;;;;;;;;;;;;;5016703;28;19910;-58
2022/04/11 13:51:54;;;;;;;;;;;;;;;;;;5017476;28;19914;-58
2022/04/11 13:54:20;;;;;;;;;;;;;;;;;;5015213;28;20264;-58
2022/04/11 13:56:45;;;;;;;;;;;;;;;;;;5014890;28;20358;-59
2022/04/11 13:59:10;;;;;;;;;;;;;;;;;;5014034;28;20271;-58
2022/04/11 14:01:35;;;;;;;;;;;;;;;;;;5016155;28;19944;-59
2022/04/11 14:04:02;;;;;;;;;;;;;;;;;;5016969;28;20015;-59
2022/04/11 14:06:27;;;;;;;;;;;;;;;;;;5015984;28;19916;-59
2022/04/11 14:08:53;;;;;;;;;;;;;;;;;;5014648;28;19913;-59
2022/04/11 14:11:18;;;;;;;;;;;;;;;;;;5017128;28;19916;-58
2022/04/11 14:13:43;;;;;;;;;;;;;;;;;;5013379;28;19909;-59
2022/04/11 14:16:08;;;;;;;;;;;;;;;;;;5016684;28;19914;-59
2022/04/11 14:18:34;;;;;;;;;;;;;;;;;;5015734;28;19916;-59
2022/04/11 14:20:59;;;;;;;;;;;;;;;;;;5031176;28;20024;-59
2022/04/11 14:23:27;;;;;;;;;;;;;;;;;;5016086;28;20318;-59
2022/04/11 14:25:52;;;;;;;;;;;;;;;;;;5015840;28;19909;-59
2022/04/11 14:28:17;;;;;;;;;;;;;;;;;;5016533;28;19909;-59
2022/04/11 14:30:42;;;;;;;;;;;;;;;;;;5031335;28;19932;-58
2022/04/11 14:33:08;;;;;;;;;;;;;;;;;;5030639;28;19932;-59
2022/04/11 14:35:33;;;;;;;;;;;;;;;;;;5015828;28;20358;-59
2022/04/11 14:37:58;;;;;;;;;;;;;;;;;;5015522;28;19913;-59
2022/04/11 14:40:24;;;;;;;;;;;;;;;;;;5029601;28;19961;-59
2022/04/11 14:42:49;;;;;;;;;;;;;;;;;;5015297;28;20007;-59
2022/04/11 14:45:14;;;;;;;;;;;;;;;;;;5015471;28;19999;-60
2022/04/11 14:47:39;;;;;;;;;;;;;;;;;;5016222;28;19949;-59
2022/04/11 14:50:04;;;;;;;;;;;;;;;;;;5015524;28;20011;-58
2022/04/11 14:52:30;;;;;;;;;;;;;;;;;;5014512;28;20000;-59
2022/04/11 14:54:55;;;;;;;;;;;;;;;;;;5020928;28;19920;-58
2022/04/11 14:57:20;;;;;;;;;;;;;;;;;;5034646;28;19913;-59
2022/04/11 14:59:45;;;;;;;;;;;;;;;;;;5034972;28;19909;-59
2022/04/11 15:02:11;;;;;;;;;;;;;;;;;;5020650;28;20251;-59
2022/04/11 15:04:36;;;;;;;;;;;;;;;;;;5015350;28;20268;-60
2022/04/11 15:07:01;;;;;;;;;;;;;;;;;;5046841;28;19905;-60
2022/04/11 15:09:26;;;;;;;;;;;;;;;;;;5015154;28;19909;-59
2022/04/11 15:11:51;;;;;;;;;;;;;;;;;;5013831;28;19909;-59
2022/04/11 15:14:17;;;;;;;;;;;;;;;;;;5014982;28;19909;-59
2022/04/11 15:16:43;;;;;;;;;;;;;;;;;;5014999;28;20358;-59
2022/04/11 15:19:08;;;;;;;;;;;;;;;;;;5014703;28;19987;-59
2022/04/11 15:21:33;;;;;;;;;;;;;;;;;;5013713;28;20321;-59
2022/04/11 15:24:00;;;;;;;;;;;;;;;;;;5014966;28;19909;-58
2022/04/11 15:26:26;;;;;;;;;;;;;;;;;;5020164;28;20020;-58
2022/04/11 15:28:51;;;;;;;;;;;;;;;;;;5054835;28;20326;-59
2022/04/11 15:31:16;;;;;;;;;;;;;;;;;;5053310;28;19909;-59
2022/04/11 15:33:41;;;;;;;;;;;;;;;;;;5054513;28;19963;-60
2022/04/11 15:36:07;;;;;;;;;;;;;;;;;;5054616;28;19913;-60
2022/04/11 15:38:32;;;;;;;;;;;;;;;;;;5054239;28;19913;-60
2022/04/11 15:40:57;;;;;;;;;;;;;;;;;;5054658;28;19913;-60
2022/04/11 15:43:24;;;;;;;;;;;;;;;;;;5054112;28;20357;-60
2022/04/11 15:45:50;;;;;;;;;;;;;;;;;;5054334;28;19909;-61
2022/04/11 15:48:15;;;;;;;;;;;;;;;;;;5054538;28;19913;-60
2022/04/11 15:50:40;;;;;;;;;;;;;;;;;;5053241;28;19905;-60
2022/04/11 15:53:05;;;;;;;;;;;;;;;;;;5054731;28;19909;-61
2022/04/11 15:55:30;;;;;;;;;;;;;;;;;;5053976;28;19912;-60
2022/04/11 15:57:56;;;;;;;;;;;;;;;;;;5053954;28;19916;-60
2022/04/11 16:00:21;;;;;;;;;;;;;;;;;;5027240;28;19909;-61
2022/04/11 16:02:47;;;;;;;;;;;;;;;;;;5014128;28;20356;-60
2022/04/11 16:05:12;;;;;;;;;;;;;;;;;;5014201;28;19910;-60
2022/04/11 16:07:37;;;;;;;;;;;;;;;;;;5014228;28;19992;-60
2022/04/11 16:10:02;;;;;;;;;;;;;;;;;;5045589;28;19916;-60
2022/04/11 16:12:28;;;;;;;;;;;;;;;;;;5014567;28;19910;-61
2022/04/11 16:14:53;;;;;;;;;;;;;;;;;;5014201;28;20239;-61
2022/04/11 16:17:18;;;;;;;;;;;;;;;;;;5014492;28;20312;-61
2022/04/11 16:19:43;;;;;;;;;;;;;;;;;;5045610;28;20309;-61
2022/04/11 16:22:08;;;;;;;;;;;;;;;;;;5014036;28;19909;-60
2022/04/11 16:24:34;;;;;;;;;;;;;;;;;;5014223;28;19910;-60
2022/04/11 16:27:00;;;;;;;;;;;;;;;;;;5013787;28;19909;-60
2022/04/11 16:29:25;;;;;;;;;;;;;;;;;;5014027;28;19909;-60
2022/04/11 16:31:50;;;;;;;;;;;;;;;;;;5013669;28;19917;-60
2022/04/11 16:34:15;;;;;;;;;;;;;;;;;;5046001;28;19920;-60
2022/04/11 16:36:41;;;;;;;;;;;;;;;;;;5014185;28;19913;-60
2022/04/11 16:39:07;;;;;;;;;;;;;;;;;;5013726;28;20355;-59
2022/04/11 16:41:32;;;;;;;;;;;;;;;;;;5013737;28;20335;-60